Time;durP1;ratioP1;P1;durP2;ratioP2;P2;SDS_P1;SDS_P2;PMS_P1;PMS_P2;Temp;Humidity;BMP_temperature;BMP_pressure;BME280_temperature;BME280_humidity;BME280_pressure;Samples;Min_cycle;Max_cycle;Signal;HPM_P1;HPM_P2
2024/04/02 00:02:13;;;;;;;42.10;10.10;;;;;;;17.56;60.46;98643.54;107342;1258;59811;-80
2024/04/02 00:04:40;;;;;;;48.10;10.20;;;;;;;17.53;60.54;98630.84;107284;1254;74487;-77
2024/04/02 00:07:08;;;;;;;37.00;10.00;;;;;;;17.52;60.61;98633.11;107177;1251;70835;-80
2024/04/02 00:09:36;;;;;;;36.10;9.90;;;;;;;17.51;60.66;98632.60;107647;1253;71409;-76
2024/04/02 00:12:03;;;;;;;42.40;9.80;;;;;;;17.49;60.80;98634.06;108411;1253;61154;-75
2024/04/02 00:14:31;;;;;;;38.40;11.80;;;;;;;17.47;60.87;98634.09;108232;1254;60046;-77
2024/04/02 00:16:58;;;;;;;32.60;9.00;;;;;;;17.46;60.94;98635.09;108335;1253;73167;-81
2024/04/02 00:19:25;;;;;;;44.00;10.20;;;;;;;17.44;61.08;98638.11;107606;1259;68744;-80
2024/04/02 00:21:52;;;;;;;39.70;9.50;;;;;;;17.41;61.16;98634.04;106388;1254;72596;-80
2024/04/02 00:24:20;;;;;;;45.40;11.30;;;;;;;17.38;61.30;98632.84;106215;1254;61223;-77
2024/04/02 00:26:47;;;;;;;41.10;10.20;;;;;;;17.35;61.41;98625.37;106006;1260;61309;-80
2024/04/02 00:29:14;;;;;;;36.60;10.10;;;;;;;17.32;61.54;98627.20;106184;1254;73356;-79
2024/04/02 00:31:42;;;;;;;46.30;11.20;;;;;;;17.28;61.65;98625.80;106198;1254;70494;-75
2024/04/02 00:34:09;;;;;;;40.20;11.10;;;;;;;17.26;61.80;98625.52;105802;1254;71507;-79
2024/04/02 00:36:36;;;;;;;46.10;11.10;;;;;;;17.22;62.06;98621.43;106069;1254;61323;-79
2024/04/02 00:39:04;;;;;;;38.80;11.00;;;;;;;17.18;62.08;98613.08;106161;1254;61611;-76
2024/04/02 00:41:31;;;;;;;41.50;10.30;;;;;;;17.16;62.11;98610.78;109075;1256;73456;-77
2024/04/02 00:43:58;;;;;;;39.40;11.10;;;;;;;17.13;62.16;98609.70;108859;1253;70098;-76
2024/04/02 00:46:27;;;;;;;39.00;10.50;;;;;;;17.12;62.28;98609.31;108239;1253;73682;-76
2024/04/02 00:48:54;;;;;;;36.60;10.10;;;;;;;17.09;62.53;98610.66;108627;1253;61254;-80
2024/04/02 00:51:22;;;;;;;43.30;10.10;;;;;;;17.08;62.62;98612.47;106443;1257;61228;-77
2024/04/02 00:53:50;;;;;;;38.60;10.20;;;;;;;17.06;62.73;98613.55;105727;1254;73546;-77
2024/04/02 00:56:17;;;;;;;43.50;10.20;;;;;;;17.03;63.01;98612.79;106018;1254;70323;-78
2024/04/02 00:58:44;;;;;;;38.40;10.80;;;;;;;16.99;63.08;98607.57;105915;1253;72437;-78
2024/04/02 01:01:12;;;;;;;41.50;10.40;;;;;;;16.96;63.26;98603.22;106016;1256;61382;-75
2024/04/02 01:03:40;;;;;;;36.90;9.70;;;;;;;16.93;63.45;98600.08;106000;1253;61320;-78
2024/04/02 01:06:07;;;;;;;42.30;10.10;;;;;;;16.89;63.60;98596.84;105991;1254;73320;-78
2024/04/02 01:08:35;;;;;;;51.20;11.20;;;;;;;16.85;63.78;98595.42;106170;1254;71107;-78
2024/04/02 01:11:02;;;;;;;35.60;10.20;;;;;;;16.83;63.85;98591.14;106706;1254;72495;-79
2024/04/02 01:13:29;;;;;;;45.30;10.30;;;;;;;16.81;63.85;98588.48;106531;1255;61941;-81
2024/04/02 01:16:03;;;;;;;42.00;9.60;;;;;;;16.78;64.03;98586.33;108673;1254;59601;-78
2024/04/02 01:18:31;;;;;;;41.30;11.40;;;;;;;16.77;64.10;98583.84;107554;1254;73376;-76
2024/04/02 01:20:58;;;;;;;43.90;9.50;;;;;;;16.75;64.16;98577.86;108343;1254;70015;-77
2024/04/02 01:23:25;;;;;;;44.20;10.00;;;;;;;16.75;64.18;98568.38;108724;1253;71977;-79
2024/04/02 01:25:53;;;;;;;36.20;10.10;;;;;;;16.75;64.12;98569.50;109099;1254;60053;-76
2024/04/02 01:28:20;;;;;;;33.90;10.20;;;;;;;16.75;64.34;98568.42;108757;1254;59762;-76
2024/04/02 01:30:47;;;;;;;39.10;10.10;;;;;;;16.75;64.29;98566.54;108241;1252;73400;-78
2024/04/02 01:33:16;;;;;;;39.20;11.20;;;;;;;16.73;64.24;98560.16;107579;1254;68035;-79
2024/04/02 01:35:43;;;;;;;32.30;9.70;;;;;;;16.70;64.33;98555.45;107299;1253;72746;-77
2024/04/02 01:38:11;;;;;;;33.20;9.70;;;;;;;16.68;64.49;98556.80;108826;1254;59203;-77
2024/04/02 01:40:38;;;;;;;35.10;10.60;;;;;;;16.65;64.68;98560.60;108834;1254;59291;-78
2024/04/02 01:43:06;;;;;;;37.60;9.40;;;;;;;16.62;64.83;98562.03;107272;1254;73331;-80
2024/04/02 01:45:33;;;;;;;36.30;10.00;;;;;;;16.57;64.95;98553.87;107047;1254;69286;-78
2024/04/02 01:48:02;;;;;;;37.80;11.00;;;;;;;16.51;65.22;98548.61;106173;1257;72635;-78
2024/04/02 01:50:30;;;;;;;36.60;9.30;;;;;;;16.45;65.48;98541.52;106134;1257;61244;-76
2024/04/02 01:52:57;;;;;;;35.80;10.40;;;;;;;16.40;65.41;98534.45;106187;1254;61346;-76
2024/04/02 01:55:25;;;;;;;36.20;9.30;;;;;;;16.36;65.75;98529.03;106361;1256;74911;-78
2024/04/02 01:57:52;;;;;;;36.00;9.00;;;;;;;16.31;65.81;98528.83;106885;1254;71144;-76
2024/04/02 02:00:20;;;;;;;39.50;10.30;;;;;;;16.26;66.06;98532.96;106836;1254;72358;-75
2024/04/02 02:02:49;;;;;;;33.40;9.80;;;;;;;16.23;66.18;98531.59;106442;1257;61170;-77
2024/04/02 02:05:17;;;;;;;42.30;10.00;;;;;;;16.18;66.49;98533.55;106201;1254;61163;-79
2024/04/02 02:07:45;;;;;;;44.70;10.30;;;;;;;16.14;66.45;98531.84;105911;1260;74561;-76
2024/04/02 02:10:13;;;;;;;32.50;10.10;;;;;;;16.10;66.55;98527.94;106014;1257;68722;-76
2024/04/02 02:12:40;;;;;;;31.50;10.40;;;;;;;16.05;66.81;98518.30;105898;1254;72495;-77
2024/04/02 02:15:08;;;;;;;31.30;8.40;;;;;;;16.01;67.09;98511.83;105937;1259;61228;-76
2024/04/02 02:17:35;;;;;;;40.40;10.20;;;;;;;15.99;67.15;98511.87;106185;1254;61298;-76
2024/04/02 02:20:05;;;;;;;39.90;8.80;;;;;;;16.02;67.16;98507.35;107459;1253;73561;-76
2024/04/02 02:22:36;;;;;;;37.80;9.10;;;;;;;15.99;67.04;98503.86;107249;1254;69089;-79
2024/04/02 02:25:03;;;;;;;42.70;9.40;;;;;;;15.96;67.14;98496.61;106071;1255;72682;-78
2024/04/02 02:27:30;;;;;;;33.30;9.40;;;;;;;15.91;67.17;98491.47;106526;1256;61377;-79
2024/04/02 02:29:58;;;;;;;39.30;9.60;;;;;;;15.88;67.54;98493.42;109348;1253;58884;-79
2024/04/02 02:32:25;;;;;;;35.90;10.30;;;;;;;15.82;67.57;98499.45;109531;1253;73343;-77
2024/04/02 02:34:52;;;;;;;29.10;9.90;;;;;;;15.79;67.60;98495.90;109577;1254;68704;-74
2024/04/02 02:37:20;;;;;;;40.90;9.60;;;;;;;15.74;67.84;98497.13;109423;1254;71136;-77
2024/04/02 02:39:47;;;;;;;33.80;9.30;;;;;;;15.71;67.98;98498.67;106237;1254;61241;-78
2024/04/02 02:42:14;;;;;;;38.10;10.20;;;;;;;15.67;67.95;98494.08;106293;1255;61308;-76
2024/04/02 02:44:42;;;;;;;32.50;9.00;;;;;;;15.62;68.24;98497.88;106235;1254;73369;-76
2024/04/02 02:47:09;;;;;;;37.00;8.80;;;;;;;15.63;68.16;98498.61;108310;1253;69964;-76
2024/04/02 02:49:36;;;;;;;31.60;8.80;;;;;;;15.68;68.18;98495.47;109532;1256;71396;-80
2024/04/02 02:52:03;;;;;;;37.00;8.60;;;;;;;15.68;67.92;98505.15;109330;1260;58671;-81
2024/04/02 02:54:31;;;;;;;35.60;7.80;;;;;;;15.66;67.95;98502.67;109615;1253;58969;-78
2024/04/02 02:56:58;;;;;;;31.10;10.00;;;;;;;15.64;68.02;98496.85;108957;1253;73501;-76
2024/04/02 02:59:25;;;;;;;40.00;10.30;;;;;;;15.62;67.87;98494.25;109062;1253;68725;-77
2024/04/02 03:01:53;;;;;;;31.80;9.90;;;;;;;15.60;67.91;98492.23;108970;1254;71631;-79
2024/04/02 03:04:20;;;;;;;38.30;9.40;;;;;;;15.58;68.05;98496.17;108943;1254;61566;-77
2024/04/02 03:06:47;;;;;;;35.00;9.30;;;;;;;15.53;67.92;98501.43;108548;1254;58808;-79
2024/04/02 03:09:15;;;;;;;35.60;9.40;;;;;;;15.48;68.03;98493.15;107885;1254;73345;-79
2024/04/02 03:11:43;;;;;;;32.40;9.10;;;;;;;15.45;67.95;98486.13;108474;1254;68702;-78
2024/04/02 03:14:10;;;;;;;35.00;9.50;;;;;;;15.43;68.11;98483.98;109371;1254;71576;-78
2024/04/02 03:16:38;;;;;;;38.80;9.80;;;;;;;15.40;68.14;98480.17;109656;1253;58774;-79
2024/04/02 03:19:05;;;;;;;30.00;9.10;;;;;;;15.45;67.94;98480.61;109356;1254;58732;-81
2024/04/02 03:21:33;;;;;;;27.50;7.70;;;;;;;15.50;67.91;98479.93;109464;1253;75614;-80
2024/04/02 03:24:01;;;;;;;29.20;7.50;;;;;;;15.48;67.75;98478.62;109655;1254;68957;-81
2024/04/02 03:26:28;;;;;;;31.40;10.30;;;;;;;15.45;67.74;98475.91;109559;1254;70779;-81
2024/04/02 03:28:55;;;;;;;29.90;9.00;;;;;;;15.43;67.76;98478.86;109601;1254;58849;-79
2024/04/02 03:31:23;;;;;;;38.70;9.20;;;;;;;15.40;67.68;98480.27;109472;1253;61138;-78
2024/04/02 03:33:50;;;;;;;38.00;9.60;;;;;;;15.34;67.91;98477.73;109514;1253;73150;-79
2024/04/02 03:36:17;;;;;;;36.10;10.30;;;;;;;15.32;67.81;98472.21;109620;1256;70249;-79
2024/04/02 03:38:45;;;;;;;30.20;9.40;;;;;;;15.30;68.03;98473.08;109518;1252;71505;-79
2024/04/02 03:41:13;;;;;;;40.30;10.50;;;;;;;15.26;68.04;98475.70;109612;1253;58813;-80
2024/04/02 03:43:44;;;;;;;36.30;10.20;;;;;;;15.22;68.19;98469.55;109609;1254;58802;-79
2024/04/02 03:46:11;;;;;;;33.30;9.70;;;;;;;15.19;68.18;98473.23;109394;1254;73792;-79
2024/04/02 03:48:38;;;;;;;33.70;9.30;;;;;;;15.20;68.29;98467.16;109410;1254;68720;-78
2024/04/02 03:51:06;;;;;;;35.90;8.90;;;;;;;15.29;67.96;98461.59;109525;1253;71601;-78
2024/04/02 03:53:33;;;;;;;33.70;9.00;;;;;;;15.30;67.97;98456.06;109501;1254;60896;-78
2024/04/02 03:56:02;;;;;;;40.50;9.10;;;;;;;15.27;67.99;98453.85;109544;1254;59020;-78
2024/04/02 03:58:29;;;;;;;32.00;10.00;;;;;;;15.24;68.00;98450.27;109616;1254;73436;-78
2024/04/02 04:00:57;;;;;;;27.70;8.80;;;;;;;15.21;68.20;98444.11;109482;1253;68838;-78
2024/04/02 04:03:25;;;;;;;34.90;9.00;;;;;;;15.16;68.23;98446.40;109573;1254;71103;-77
2024/04/02 04:05:59;;;;;;;32.00;8.80;;;;;;;15.11;68.39;98442.53;109505;1255;59316;-77
2024/04/02 04:08:26;;;;;;;38.70;8.90;;;;;;;15.07;68.37;98436.02;109406;1254;58843;-76
2024/04/02 04:10:54;;;;;;;29.80;8.80;;;;;;;15.04;68.44;98442.51;109482;1253;72258;-78
2024/04/02 04:13:21;;;;;;;28.50;8.90;;;;;;;15.00;68.73;98437.38;109404;1252;68711;-78
2024/04/02 04:15:58;;;;;;;32.10;8.50;;;;;;;14.96;68.65;98428.23;109551;1254;71411;-80
2024/04/02 04:18:26;;;;;;;29.10;8.70;;;;;;;14.94;68.81;98417.55;109241;1253;60105;-76
2024/04/02 04:21:01;;;;;;;32.50;8.90;;;;;;;15.00;68.82;98418.79;109385;1256;58826;-79
2024/04/02 04:23:29;;;;;;;26.60;9.00;;;;;;;14.99;68.92;98417.09;107910;1253;73456;-80
2024/04/02 04:25:57;;;;;;;29.30;9.30;;;;;;;14.93;68.90;98410.48;107831;1254;69886;-80
2024/04/02 04:28:25;;;;;;;41.50;9.50;;;;;;;14.89;69.03;98406.48;108559;1254;73718;-81
2024/04/02 04:30:53;;;;;;;32.90;9.50;;;;;;;14.86;69.10;98400.35;109328;1254;58779;-80
2024/04/02 04:33:21;;;;;;;39.30;9.60;;;;;;;14.84;69.11;98388.42;109413;1254;59282;-79
2024/04/02 04:35:49;;;;;;;33.80;8.80;;;;;;;14.80;69.32;98385.23;108281;1253;73879;-80
2024/04/02 04:38:16;;;;;;;39.50;9.30;;;;;;;14.77;69.38;98387.71;108818;1254;69370;-83
2024/04/02 04:40:44;;;;;;;31.80;8.70;;;;;;;14.74;69.53;98385.40;108414;1254;71498;-80
2024/04/02 04:43:15;;;;;;;37.20;9.50;;;;;;;14.81;69.31;98383.01;108241;1254;61921;-80
2024/04/02 04:45:53;;;;;;;35.50;9.30;;;;;;;14.85;69.23;98376.21;108794;1253;60424;-80
2024/04/02 04:48:20;;;;;;;29.70;8.00;;;;;;;14.85;69.28;98366.96;109164;1254;74681;-80
2024/04/02 04:50:58;;;;;;;35.70;9.00;;;;;;;14.86;69.17;98367.61;109416;1255;68742;-80
2024/04/02 04:53:26;;;;;;;30.80;10.20;;;;;;;14.87;69.21;98362.31;109183;1253;71326;-80
2024/04/02 04:56:02;;;;;;;26.00;9.70;;;;;;;14.86;68.94;98354.16;109199;1254;59837;-80
2024/04/02 04:58:29;;;;;;;41.20;10.10;;;;;;;14.87;69.05;98350.38;109203;1252;59134;-77
2024/04/02 05:00:57;;;;;;;31.00;8.60;;;;;;;14.86;69.01;98351.16;109249;1253;73544;-81
2024/04/02 05:03:24;;;;;;;39.40;10.30;;;;;;;14.86;69.01;98355.73;109302;1253;69124;-78
2024/04/02 05:06:03;;;;;;;38.40;8.50;;;;;;;14.86;69.01;98356.60;109029;1254;73655;-78
2024/04/02 05:08:33;;;;;;;31.40;8.20;;;;;;;14.96;68.95;98351.46;108423;1254;62882;-80
2024/04/02 05:11:02;;;;;;;43.00;10.60;;;;;;;15.04;68.65;98341.65;108340;1253;59917;-81
2024/04/02 05:13:31;;;;;;;35.90;10.30;;;;;;;15.06;68.53;98345.74;108460;1253;73619;-81
2024/04/02 05:15:58;;;;;;;37.20;9.30;;;;;;;15.06;68.49;98339.23;108672;1254;67868;-78
2024/04/02 05:18:25;;;;;;;27.40;9.20;;;;;;;15.07;68.33;98339.09;108624;1253;71390;-80
2024/04/02 05:20:53;;;;;;;27.50;9.00;;;;;;;15.08;68.40;98341.78;108683;1259;62505;-79
2024/04/02 05:23:21;;;;;;;35.00;9.90;;;;;;;15.08;68.17;98340.59;109440;1252;61137;-81
2024/04/02 05:25:48;;;;;;;35.30;9.00;;;;;;;15.07;68.30;98339.20;109299;1254;73505;-81
2024/04/02 05:28:16;;;;;;;36.00;9.30;;;;;;;15.07;68.16;98342.30;109549;1254;70935;-78
2024/04/02 05:30:43;;;;;;;39.40;8.90;;;;;;;15.06;68.22;98337.25;109258;1254;71429;-80
2024/04/02 05:33:10;;;;;;;32.90;9.40;;;;;;;15.05;68.20;98338.73;108896;1253;59821;-79
2024/04/02 05:35:37;;;;;;;29.20;8.70;;;;;;;15.02;68.20;98336.56;108756;1254;59982;-77
2024/04/02 05:38:06;;;;;;;33.00;8.90;;;;;;;14.99;68.23;98337.41;107254;1253;73326;-79
2024/04/02 05:40:34;;;;;;;33.40;8.80;;;;;;;14.99;68.25;98331.73;107294;1253;69359;-78
2024/04/02 05:43:01;;;;;;;38.80;9.10;;;;;;;15.07;68.21;98329.55;107302;1254;72497;-81
2024/04/02 05:45:29;;;;;;;40.70;10.30;;;;;;;15.09;68.22;98323.84;107219;1259;61762;-79
2024/04/02 05:47:56;;;;;;;32.10;9.80;;;;;;;15.09;68.04;98330.80;107090;1254;61225;-80
2024/04/02 05:50:23;;;;;;;29.90;9.10;;;;;;;15.09;67.94;98332.81;106644;1254;73587;-82
2024/04/02 05:52:51;;;;;;;34.70;10.20;;;;;;;15.08;67.99;98320.82;106533;1260;70278;-80
2024/04/02 05:55:18;;;;;;;31.10;9.10;;;;;;;15.08;67.89;98307.72;106600;1254;74679;-81
2024/04/02 05:57:45;;;;;;;37.80;9.30;;;;;;;15.09;67.92;98298.29;106954;1254;61884;-79
2024/04/02 06:00:13;;;;;;;34.70;9.70;;;;;;;15.11;67.77;98293.40;106637;1253;61388;-81
2024/04/02 06:02:42;;;;;;;37.80;9.40;;;;;;;15.15;67.75;98289.63;106326;1262;76649;-81
2024/04/02 06:05:09;;;;;;;29.20;8.90;;;;;;;15.22;67.79;98279.66;106405;1252;72687;-81
2024/04/02 06:07:36;;;;;;;39.10;9.20;;;;;;;15.30;67.48;98279.21;106440;1259;74856;-79
2024/04/02 06:10:04;;;;;;;35.40;9.70;;;;;;;15.39;67.17;98289.58;106577;1256;61286;-82
2024/04/02 06:12:31;;;;;;;37.80;9.10;;;;;;;15.45;66.90;98295.55;106242;1254;61830;-79
2024/04/02 06:14:59;;;;;;;28.50;8.60;;;;;;;15.48;66.75;98287.52;107736;1252;73934;-78
2024/04/02 06:17:26;;;;;;;34.50;9.80;;;;;;;15.50;66.73;98277.70;109229;1254;69075;-80
2024/04/02 06:19:54;;;;;;;33.00;9.70;;;;;;;15.56;66.61;98277.55;108153;1254;73912;-81
2024/04/02 06:22:27;;;;;;;37.00;9.60;;;;;;;15.59;66.30;98274.40;106569;1253;61355;-80
2024/04/02 06:24:54;;;;;;;42.20;9.80;;;;;;;15.60;66.25;98279.62;106754;1254;61854;-80
2024/04/02 06:27:21;;;;;;;29.60;8.60;;;;;;;15.60;66.21;98275.30;106350;1254;73464;-79
2024/04/02 06:29:49;;;;;;;30.80;8.60;;;;;;;15.60;65.95;98270.10;106651;1258;69172;-78
2024/04/02 06:32:21;;;;;;;34.90;9.50;;;;;;;15.59;65.94;98258.95;106398;1253;72688;-80
2024/04/02 06:34:48;;;;;;;37.00;9.70;;;;;;;15.64;66.11;98263.42;106271;1254;61172;-80
2024/04/02 06:37:15;;;;;;;32.30;9.40;;;;;;;15.68;65.88;98265.40;106495;1254;61279;-79
2024/04/02 06:39:42;;;;;;;37.50;9.20;;;;;;;15.72;65.78;98268.21;106219;1257;74624;-81
2024/04/02 06:42:10;;;;;;;33.30;9.40;;;;;;;15.77;65.76;98263.49;106091;1254;69018;-80
2024/04/02 06:44:37;;;;;;;30.60;9.30;;;;;;;15.81;65.61;98259.89;106190;1257;72874;-81
2024/04/02 06:47:04;;;;;;;31.60;8.90;;;;;;;15.87;65.47;98258.66;106401;1255;62244;-81
2024/04/02 06:49:32;;;;;;;30.40;9.30;;;;;;;15.92;65.41;98250.98;107221;1254;61299;-82
2024/04/02 06:51:59;;;;;;;33.00;10.00;;;;;;;15.98;65.31;98237.54;106812;1257;75735;-79
2024/04/02 06:54:27;;;;;;;40.70;10.30;;;;;;;16.05;65.30;98228.36;106198;1260;69958;-79
2024/04/02 06:56:55;;;;;;;32.30;9.10;;;;;;;16.18;65.21;98221.84;107988;1254;73812;-77
2024/04/02 06:59:23;;;;;;;37.70;9.80;;;;;;;16.34;64.95;98224.47;108318;1254;61233;-77
2024/04/02 07:01:51;;;;;;;34.50;9.60;;;;;;;16.45;64.53;98217.36;107032;1259;61225;-79
2024/04/02 07:04:18;;;;;;;35.50;9.80;;;;;;;16.58;64.13;98215.90;106572;1256;73239;-81
2024/04/02 07:06:46;;;;;;;31.60;10.10;;;;;;;16.70;63.73;98216.89;106300;1260;72677;-81
2024/04/02 07:09:13;;;;;;;34.00;9.60;;;;;;;16.78;63.43;98215.50;108715;1254;71429;-80
2024/04/02 07:11:41;;;;;;;31.80;9.70;;;;;;;16.85;63.37;98207.75;109024;1254;61116;-80
2024/04/02 07:14:08;;;;;;;32.70;9.60;;;;;;;16.96;63.03;98206.83;107141;1254;61316;-78
2024/04/02 07:16:36;;;;;;;34.60;8.90;;;;;;;17.02;62.75;98201.92;106740;1254;75189;-81
2024/04/02 07:19:03;;;;;;;33.30;9.00;;;;;;;17.08;62.67;98200.46;106264;1252;71942;-80
2024/04/02 07:21:31;;;;;;;29.90;8.70;;;;;;;17.18;62.58;98202.67;106389;1254;73270;-79
2024/04/02 07:23:58;;;;;;;27.70;9.00;;;;;;;17.28;62.34;98190.61;106302;1254;61240;-80
2024/04/02 07:26:26;;;;;;;30.50;8.30;;;;;;;17.40;62.11;98181.38;106661;1255;61413;-74
2024/04/02 07:28:53;;;;;;;32.70;9.30;;;;;;;17.54;61.87;98177.98;106425;1257;76983;-75
2024/04/02 07:31:24;;;;;;;34.10;9.40;;;;;;;17.70;61.31;98182.34;105874;1257;71253;-77
2024/04/02 07:33:52;;;;;;;32.40;10.30;;;;;;;17.81;60.91;98180.90;106177;1254;73660;-74
2024/04/02 07:36:20;;;;;;;32.00;8.90;;;;;;;17.89;60.68;98174.56;105592;1254;61291;-73
2024/04/02 07:38:48;;;;;;;37.90;9.50;;;;;;;18.00;60.20;98172.73;105840;1260;61743;-77
2024/04/02 07:41:16;;;;;;;33.50;8.90;;;;;;;18.08;60.02;98171.69;106235;1257;77061;-77
2024/04/02 07:43:43;;;;;;;33.10;10.60;;;;;;;18.15;59.68;98161.59;106197;1261;70014;-75
2024/04/02 07:46:10;;;;;;;26.60;10.30;;;;;;;18.24;59.63;98159.83;106173;1254;73619;-75
2024/04/02 07:48:38;;;;;;;37.30;9.30;;;;;;;18.36;59.34;98157.29;106035;1253;61270;-78
2024/04/02 07:51:09;;;;;;;26.30;7.70;;;;;;;18.46;58.73;98148.21;106213;1254;62019;-77
2024/04/02 07:53:36;;;;;;;32.10;8.40;;;;;;;18.55;58.63;98140.05;106167;1253;75777;-80
2024/04/02 07:56:04;;;;;;;38.50;9.80;;;;;;;18.67;58.15;98135.76;107583;1258;71391;-77
2024/04/02 07:58:32;;;;;;;35.10;9.90;;;;;;;18.77;57.50;98128.41;106730;1254;72547;-78
2024/04/02 08:01:00;;;;;;;28.10;7.60;;;;;;;18.85;57.45;98115.34;106726;1256;61070;-77
2024/04/02 08:03:27;;;;;;;28.80;8.40;;;;;;;18.95;57.18;98101.40;107816;1253;61093;-79
2024/04/02 08:05:57;;;;;;;32.30;9.60;;;;;;;19.07;56.91;98101.29;109137;1254;74140;-79
2024/04/02 08:08:24;;;;;;;36.90;9.50;;;;;;;19.22;56.39;98099.99;107819;1259;71155;-79
2024/04/02 08:10:51;;;;;;;32.70;9.30;;;;;;;19.35;55.83;98092.28;106479;1254;74764;-76
2024/04/02 08:13:19;;;;;;;40.60;9.60;;;;;;;19.43;55.45;98094.50;106361;1254;62513;-79
2024/04/02 08:18:47;;;;;;;36.00;9.70;;;;;;;19.64;55.36;98082.10;102911;1296;600938;-78
2024/04/02 08:21:14;;;;;;;29.90;10.10;;;;;;;19.78;54.91;98081.49;105649;1271;59923;-78
2024/04/02 08:23:42;;;;;;;29.90;9.20;;;;;;;19.94;54.45;98083.91;105494;1267;59639;-77
2024/04/02 08:26:09;;;;;;;37.50;9.90;;;;;;;20.06;54.06;98075.08;105671;1271;75188;-79
2024/04/02 08:28:37;;;;;;;34.20;8.70;;;;;;;20.18;53.51;98069.79;105937;1268;69389;-77
2024/04/02 08:31:05;;;;;;;40.50;9.20;;;;;;;20.29;53.09;98068.69;106613;1267;73164;-78
2024/04/02 08:33:33;;;;;;;33.00;10.20;;;;;;;20.37;52.60;98060.38;107678;1268;243623;-78
2024/04/02 08:36:01;;;;;;;34.50;10.20;;;;;;;20.50;52.72;98059.96;108458;1258;60891;-79
2024/04/02 08:38:28;;;;;;;32.10;9.60;;;;;;;20.71;52.37;98053.61;107691;1254;73533;-79
2024/04/02 08:41:01;;;;;;;31.10;9.10;;;;;;;20.93;51.80;98046.35;106834;1253;72733;-76
2024/04/02 08:43:29;;;;;;;37.30;9.10;;;;;;;21.12;51.34;98046.58;106626;1253;73874;-79
2024/04/02 08:45:58;;;;;;;29.90;8.80;;;;;;;21.29;50.89;98053.12;106391;1253;62651;-79
2024/04/02 08:48:26;;;;;;;40.50;8.90;;;;;;;21.49;50.06;98039.63;106361;1254;60446;-78
2024/04/02 08:50:55;;;;;;;30.90;9.40;;;;;;;21.68;50.03;98038.30;106453;1258;73806;-79
2024/04/02 08:53:23;;;;;;;42.90;9.90;;;;;;;21.90;49.78;98041.38;106420;1254;73150;-78
2024/04/02 08:55:50;;;;;;;34.30;9.30;;;;;;;22.10;49.00;98041.34;106359;1257;72537;-77
2024/04/02 08:58:18;;;;;;;28.00;9.40;;;;;;;22.22;48.51;98035.30;107296;1253;60427;-77
2024/04/02 09:00:45;;;;;;;31.40;9.30;;;;;;;22.36;48.05;98024.29;108472;1253;60515;-76
2024/04/02 09:03:12;;;;;;;36.50;10.00;;;;;;;22.48;47.86;98022.00;107499;1253;74709;-76
2024/04/02 09:05:40;;;;;;;30.60;9.70;;;;;;;22.65;47.65;98010.98;106510;1253;69333;-77
2024/04/02 09:08:09;;;;;;;40.40;10.10;;;;;;;22.91;47.12;98005.35;106770;1253;74814;-76
2024/04/02 09:10:36;;;;;;;42.70;10.40;;;;;;;23.20;46.34;98000.70;106515;1254;60634;-78
2024/04/02 09:13:04;;;;;;;35.80;10.90;;;;;;;23.46;46.14;97996.79;106691;1254;60878;-78
2024/04/02 09:15:31;;;;;;;38.50;9.80;;;;;;;23.83;45.36;97981.35;106466;1254;76071;-77
2024/04/02 09:17:59;;;;;;;42.70;10.30;;;;;;;24.38;45.03;97981.48;106588;1253;72433;-78
2024/04/02 09:20:27;;;;;;;42.00;10.80;;;;;;;25.00;44.27;97976.16;106198;1256;74932;-81
2024/04/02 09:22:54;;;;;;;38.80;10.90;;;;;;;25.70;42.68;97960.77;106288;1254;61518;-82
2024/04/02 09:25:22;;;;;;;31.00;9.90;;;;;;;26.32;41.55;97953.77;106088;1254;61114;-79
2024/04/02 09:27:50;;;;;;;42.20;10.10;;;;;;;26.83;40.65;97964.05;106177;1254;75950;-79
2024/04/02 09:30:18;;;;;;;38.20;10.50;;;;;;;27.26;39.67;97960.80;106034;1254;71173;-81
2024/04/02 09:32:46;;;;;;;37.30;11.00;;;;;;;27.62;39.24;97944.92;106462;1258;75011;-82
2024/04/02 09:35:13;;;;;;;34.40;10.90;;;;;;;28.03;38.47;97940.98;107711;1253;62226;-83
2024/04/02 09:37:41;;;;;;;37.00;10.60;;;;;;;28.30;37.71;97941.21;107432;1254;59847;-82
2024/04/02 09:40:09;;;;;;;40.80;11.20;;;;;;;28.45;37.32;97950.20;106603;1254;73220;-83
2024/04/02 09:42:36;;;;;;;38.00;10.80;;;;;;;28.58;37.02;97936.47;106451;1254;69164;-83
2024/04/02 09:45:04;;;;;;;33.10;10.00;;;;;;;28.70;36.71;97924.05;106603;1254;75084;-77
2024/04/02 09:47:32;;;;;;;44.10;11.20;;;;;;;28.92;36.63;97914.64;107979;1254;60557;-79
2024/04/02 09:49:59;;;;;;;35.40;11.20;;;;;;;29.27;36.18;97913.52;107342;1256;60502;-78
2024/04/02 09:52:26;;;;;;;38.20;11.30;;;;;;;29.60;35.72;97900.52;106291;1254;72808;-78
2024/04/02 09:54:54;;;;;;;36.20;10.20;;;;;;;29.99;35.65;97901.21;108759;1253;73206;-81
2024/04/02 09:57:22;;;;;;;37.00;10.60;;;;;;;30.41;34.97;97895.98;108862;1253;73726;-79
2024/04/02 09:59:49;;;;;;;45.40;13.00;;;;;;;30.59;34.20;97895.98;106464;1255;60349;-79
2024/04/02 10:02:20;;;;;;;40.80;11.10;;;;;;;30.38;34.22;97886.67;107474;1254;60363;-78
2024/04/02 10:04:50;;;;;;;37.50;10.90;;;;;;;29.98;34.42;97884.55;106805;1253;74999;-79
2024/04/02 10:07:27;;;;;;;34.60;11.00;;;;;;;29.47;35.12;97870.14;106281;1254;69343;-79
2024/04/02 10:09:59;;;;;;;36.30;10.00;;;;;;;29.10;35.51;97875.80;106475;1254;72830;-81
2024/04/02 10:12:29;;;;;;;36.70;10.50;;;;;;;28.97;35.81;97880.39;106442;1256;60573;-79
2024/04/02 10:14:56;;;;;;;39.70;10.70;;;;;;;28.89;35.95;97868.63;106476;1257;62304;-80
2024/04/02 10:17:24;;;;;;;39.30;11.00;;;;;;;29.01;35.96;97865.39;106404;1254;73797;-79
2024/04/02 10:19:52;;;;;;;41.00;10.30;;;;;;;29.31;35.57;97854.20;106058;1254;71954;-77
2024/04/02 10:22:47;;;;;;;38.30;9.60;;;;;;;29.71;35.24;97856.58;106735;1253;73490;-79
2024/04/02 10:25:14;;;;;;;36.90;11.80;;;;;;;30.28;34.77;97847.77;106560;1254;58902;-79
2024/04/02 10:27:44;;;;;;;55.10;12.00;;;;;;;30.75;33.47;97854.34;105514;1254;62312;-77
2024/04/02 10:30:20;;;;;;;35.90;11.20;;;;;;;30.99;32.30;97856.85;106301;1259;74536;-77
2024/04/02 10:32:51;;;;;;;40.20;11.30;;;;;;;30.73;32.60;97857.35;106342;1254;72585;-80
2024/04/02 10:35:23;;;;;;;30.10;10.20;;;;;;;30.30;32.86;97849.79;106140;1257;71518;-78
2024/04/02 10:37:52;;;;;;;40.30;9.60;;;;;;;29.96;33.41;97845.67;106544;1254;60413;-81
2024/04/02 10:40:19;;;;;;;39.70;10.00;;;;;;;29.89;33.51;97845.54;106573;1254;61297;-81
2024/04/02 10:42:48;;;;;;;42.00;11.50;;;;;;;29.99;33.21;97847.56;106361;1254;73048;-81
2024/04/02 10:45:16;;;;;;;36.50;10.60;;;;;;;29.93;33.00;97856.63;106533;1256;69056;-80
2024/04/02 10:47:46;;;;;;;30.20;8.70;;;;;;;29.91;33.09;97847.31;106234;1254;71083;-76
2024/04/02 10:50:14;;;;;;;34.90;11.20;;;;;;;29.82;32.98;97847.42;107488;1255;61025;-80
2024/04/02 10:52:42;;;;;;;29.00;10.20;;;;;;;29.68;33.28;97846.98;108822;1253;60964;-82
2024/04/02 10:55:10;;;;;;;40.10;11.50;;;;;;;29.78;32.98;97845.24;107871;1259;72524;-80
2024/04/02 10:57:38;;;;;;;40.50;11.50;;;;;;;29.89;33.08;97843.82;106933;1255;72617;-83
2024/04/02 11:00:13;;;;;;;27.70;10.60;;;;;;;29.93;32.91;97844.90;106878;1256;77211;-79
2024/04/02 11:02:44;;;;;;;42.20;10.70;;;;;;;29.70;33.19;97832.77;106775;1253;60501;-83
2024/04/02 11:05:12;;;;;;;36.40;11.30;;;;;;;29.65;33.43;97821.73;106609;1254;61963;-83
2024/04/02 11:07:44;;;;;;;43.00;11.40;;;;;;;29.88;33.29;97804.81;106709;1255;75850;-83
2024/04/02 11:10:12;;;;;;;35.00;11.30;;;;;;;30.42;33.02;97796.06;106401;1256;69797;-83
2024/04/02 11:12:40;;;;;;;39.40;9.50;;;;;;;31.04;32.00;97782.55;106580;1256;71858;-81
2024/04/02 11:15:11;;;;;;;29.10;11.50;;;;;;;31.47;31.55;97772.63;106499;1255;60937;-83
2024/04/02 11:17:39;;;;;;;35.50;11.00;;;;;;;31.99;31.52;97780.86;108039;1252;60844;-84
2024/04/02 11:20:09;;;;;;;45.00;11.60;;;;;;;32.75;30.62;97782.08;107173;1254;74826;-83
2024/04/02 11:25:23;;;;;;;37.90;10.30;;;;;;;33.47;29.48;97765.64;107142;1254;73851;-81